Current | Forecast
Updated: 2:00 PM JST on February 24, 2018
Observed at Tottori Airport, Japan
Temperature 46°F
Windchill 38°F
Humidity 71%
Dew Point 37°F
Wind North at 22 mph
Pressure 30.30 in (Rising)
Conditions Mostly Cloudy
Visibility 5.0 miles
UV 3 out of 16
Clouds (FEW) : 2000 ft
Scattered Clouds (SCT) : 3500 ft
Mostly Cloudy (BKN) : 5000 ft
Yesterday's Maximum 50°F
Yesterday's Minimum 32°F approx.
Yesterday's Heating Degree Days 24 approx.
Sunrise6:41 AM JST
Sunset5:54 PM JST
Moon Rise11:55 AM JST
Moon Set1:14 AM JST
Moon PhaseMoon Phase
First Quarter
Raw METARMETAR RJOR 240500Z 01019KT 8000 FEW020 SCT035 BKN050 08/03 Q1026


Monday
. High: 73° F.
Tuesday
. High: 71° F.
Wednesday
. High: 66° F.
Thursday
. High: 73° F.
Friday
. High: 73° F.
Saturday
. High: 69° F.
Sunday
. High: 71° F.
Monday
. High: 69° F.

Units: English | Metric

Find the Weather for any City, State or Zipcode, or Country:

U.S. State List | Severe Weather | Tropical Storms | Ski Conditions
United States | Canada | Central America | South America | Asia | Europe | Australia | Africa | Islands

Weather Underground

© Copyright 2018
The Weather Company, LLC